Time;durP1;ratioP1;P1;durP2;ratioP2;P2;SDS_P1;SDS_P2;PMS_P1;PMS_P2;Temp;Humidity;BMP_temperature;BMP_pressure;BME280_temperature;BME280_humidity;BME280_pressure;Samples;Min_cycle;Max_cycle;Signal;HPM_P1;HPM_P2
2022/08/17 00:01:17;;;;;;;;;9.00;9.00;;;;;;;;4975111;28;8795;-78
2022/08/17 00:03:45;;;;;;;;;13.50;13.50;;;;;;;;4976196;28;8871;-77
2022/08/17 00:06:18;;;;;;;;;11.00;11.00;;;;;;;;4971996;28;8912;-77
2022/08/17 00:08:48;;;;;;;;;10.00;10.00;;;;;;;;4981038;28;8902;-77
2022/08/17 00:11:18;;;;;;;;;9.50;9.50;;;;;;;;4975365;28;8870;-76
2022/08/17 00:13:49;;;;;;;;;10.75;9.50;;;;;;;;4972892;28;8894;-77
2022/08/17 00:16:21;;;;;;;;;11.75;11.75;;;;;;;;4976737;28;8889;-78
2022/08/17 00:18:52;;;;;;;;;9.25;9.25;;;;;;;;4974441;28;8960;-77
2022/08/17 00:21:21;;;;;;;;;13.50;13.50;;;;;;;;4981693;28;8865;-77
2022/08/17 00:23:48;;;;;;;;;12.50;11.50;;;;;;;;4978441;28;9021;-76
2022/08/17 00:26:16;;;;;;;;;11.00;11.00;;;;;;;;4973419;28;8895;-76
2022/08/17 00:28:43;;;;;;;;;12.00;10.75;;;;;;;;4974364;28;8901;-77
2022/08/17 00:31:11;;;;;;;;;9.25;9.25;;;;;;;;4976532;28;8917;-73
2022/08/17 00:33:42;;;;;;;;;10.00;10.00;;;;;;;;4972410;28;8979;-77
2022/08/17 00:36:13;;;;;;;;;13.75;12.00;;;;;;;;4976614;28;8859;-78
2022/08/17 00:38:41;;;;;;;;;12.25;12.25;;;;;;;;4979118;28;8870;-78
2022/08/17 00:41:11;;;;;;;;;12.00;11.25;;;;;;;;4975825;28;8850;-77
2022/08/17 00:43:41;;;;;;;;;12.75;12.75;;;;;;;;4978916;28;8855;-78
2022/08/17 00:46:12;;;;;;;;;10.75;10.00;;;;;;;;4976573;28;8882;-77
2022/08/17 00:48:42;;;;;;;;;12.00;12.00;;;;;;;;4970939;28;8977;-78
2022/08/17 00:51:15;;;;;;;;;13.50;12.00;;;;;;;;4978446;28;8881;-78
2022/08/17 00:53:45;;;;;;;;;11.75;11.75;;;;;;;;4975781;28;8893;-77
2022/08/17 00:56:17;;;;;;;;;12.50;12.50;;;;;;;;4975278;28;8898;-76
2022/08/17 00:58:45;;;;;;;;;16.25;13.50;;;;;;;;4976431;28;8886;-76
2022/08/17 01:01:13;;;;;;;;;15.00;14.75;;;;;;;;4969177;28;8867;-78
2022/08/17 01:03:43;;;;;;;;;15.25;14.75;;;;;;;;4977794;28;8859;-77
2022/08/17 01:06:11;;;;;;;;;17.00;17.00;;;;;;;;4973574;28;9679;-77
2022/08/17 01:08:42;;;;;;;;;14.00;12.50;;;;;;;;4980321;28;8882;-76
2022/08/17 01:11:09;;;;;;;;;13.75;12.75;;;;;;;;4974847;28;8953;-76
2022/08/17 01:13:40;;;;;;;;;11.50;11.50;;;;;;;;4977579;28;9647;-78
2022/08/17 01:16:12;;;;;;;;;17.50;14.75;;;;;;;;4978712;28;8897;-75
2022/08/17 01:18:41;;;;;;;;;6.50;6.50;;;;;;;;4971502;28;9670;-76
2022/08/17 01:21:13;;;;;;;;;14.00;14.00;;;;;;;;4980684;28;8863;-76
2022/08/17 01:23:42;;;;;;;;;15.00;15.00;;;;;;;;4976995;28;9689;-75
2022/08/17 01:26:11;;;;;;;;;16.50;15.00;;;;;;;;4978454;28;8863;-78
2022/08/17 01:28:39;;;;;;;;;13.00;13.00;;;;;;;;4975727;28;8865;-79
2022/08/17 01:31:08;;;;;;;;;11.75;11.75;;;;;;;;4976728;28;8824;-79
2022/08/17 01:33:36;;;;;;;;;16.50;14.50;;;;;;;;4979292;28;9384;-78
2022/08/17 01:36:05;;;;;;;;;12.25;11.50;;;;;;;;4978674;28;8865;-78
2022/08/17 01:38:32;;;;;;;;;12.75;10.75;;;;;;;;4976976;28;8887;-77
2022/08/17 01:41:03;;;;;;;;;13.50;13.25;;;;;;;;4982858;28;8880;-77
2022/08/17 01:43:35;;;;;;;;;19.75;19.75;;;;;;;;4972456;28;8886;-76
2022/08/17 01:46:03;;;;;;;;;14.50;14.50;;;;;;;;4972008;28;8869;-77
2022/08/17 01:48:32;;;;;;;;;16.75;16.75;;;;;;;;4976301;28;8852;-77
2022/08/17 01:50:59;;;;;;;;;13.00;12.75;;;;;;;;4978860;28;8878;-77
2022/08/17 01:53:32;;;;;;;;;16.50;15.25;;;;;;;;4971317;28;8873;-77
2022/08/17 01:56:06;;;;;;;;;16.00;15.00;;;;;;;;4974139;28;8887;-77
2022/08/17 01:58:34;;;;;;;;;13.25;13.25;;;;;;;;4981170;28;8851;-76
2022/08/17 02:01:02;;;;;;;;;15.50;15.50;;;;;;;;4973516;28;8826;-77
2022/08/17 02:03:30;;;;;;;;;13.00;11.50;;;;;;;;4974193;28;9025;-76
2022/08/17 02:05:58;;;;;;;;;12.50;12.50;;;;;;;;4974469;28;8874;-77
2022/08/17 02:08:26;;;;;;;;;14.00;13.75;;;;;;;;4977347;28;9656;-78
2022/08/17 02:10:53;;;;;;;;;14.25;12.25;;;;;;;;4976626;28;9747;-77
2022/08/17 02:13:22;;;;;;;;;15.00;14.25;;;;;;;;4981269;28;8905;-78
2022/08/17 02:15:50;;;;;;;;;12.50;12.50;;;;;;;;4980612;28;9512;-77
2022/08/17 02:18:17;;;;;;;;;16.75;15.00;;;;;;;;4981043;28;8906;-78
2022/08/17 02:20:45;;;;;;;;;17.00;15.00;;;;;;;;4984514;28;8871;-78
2022/08/17 02:23:13;;;;;;;;;16.00;16.00;;;;;;;;4980170;28;8877;-79
2022/08/17 02:25:42;;;;;;;;;14.25;14.25;;;;;;;;4978275;28;8914;-78
2022/08/17 02:28:09;;;;;;;;;15.00;14.75;;;;;;;;4981466;28;8949;-78
2022/08/17 02:30:38;;;;;;;;;19.25;17.50;;;;;;;;4980648;28;8917;-78
2022/08/17 02:33:08;;;;;;;;;12.75;12.75;;;;;;;;4979882;28;9699;-77
2022/08/17 02:35:36;;;;;;;;;13.00;13.00;;;;;;;;4977076;28;8912;-77
2022/08/17 02:38:03;;;;;;;;;14.25;14.25;;;;;;;;4982116;28;9041;-77
2022/08/17 02:40:31;;;;;;;;;18.50;17.50;;;;;;;;4981217;28;8893;-78
2022/08/17 02:42:58;;;;;;;;;16.50;14.50;;;;;;;;4978820;28;8883;-79
2022/08/17 02:45:26;;;;;;;;;20.75;19.25;;;;;;;;4975578;28;8883;-80
2022/08/17 02:47:55;;;;;;;;;14.25;14.25;;;;;;;;4973756;28;8855;-80
2022/08/17 02:50:24;;;;;;;;;14.00;14.00;;;;;;;;4982492;28;8886;-78
2022/08/17 02:52:52;;;;;;;;;13.75;13.75;;;;;;;;4975783;28;8866;-78
2022/08/17 02:55:21;;;;;;;;;14.00;14.00;;;;;;;;4976713;28;8994;-78
2022/08/17 02:57:49;;;;;;;;;16.25;16.25;;;;;;;;4980347;28;8891;-80
2022/08/17 03:00:22;;;;;;;;;16.50;15.50;;;;;;;;4976359;28;8873;-79
2022/08/17 03:02:50;;;;;;;;;14.75;13.25;;;;;;;;4978265;28;8870;-79
2022/08/17 03:05:24;;;;;;;;;12.50;12.50;;;;;;;;4977589;28;8887;-77
2022/08/17 03:07:51;;;;;;;;;13.00;12.00;;;;;;;;4976471;28;8885;-78
2022/08/17 03:10:20;;;;;;;;;17.00;14.75;;;;;;;;4978789;28;8941;-78
2022/08/17 03:12:48;;;;;;;;;10.25;10.25;;;;;;;;4978124;28;8899;-77
2022/08/17 03:15:18;;;;;;;;;14.25;12.50;;;;;;;;4979482;28;8895;-77
2022/08/17 03:17:46;;;;;;;;;17.25;13.75;;;;;;;;4975234;28;8988;-77
2022/08/17 03:20:14;;;;;;;;;18.75;16.25;;;;;;;;4977791;28;8887;-78
2022/08/17 03:22:45;;;;;;;;;15.50;15.00;;;;;;;;4971524;28;8956;-78
2022/08/17 03:25:15;;;;;;;;;13.25;12.75;;;;;;;;4980101;28;9625;-79
2022/08/17 03:27:43;;;;;;;;;16.00;16.00;;;;;;;;4979528;28;9672;-79
2022/08/17 03:30:12;;;;;;;;;15.00;13.25;;;;;;;;4980489;28;8854;-79
2022/08/17 03:32:40;;;;;;;;;16.25;16.25;;;;;;;;4990072;28;8879;-79
2022/08/17 03:35:08;;;;;;;;;17.00;17.00;;;;;;;;4987331;28;8953;-80
2022/08/17 03:37:36;;;;;;;;;12.75;12.75;;;;;;;;4987330;28;8872;-77
2022/08/17 03:40:07;;;;;;;;;20.25;19.50;;;;;;;;4987976;28;8890;-79
2022/08/17 03:42:36;;;;;;;;;17.50;17.00;;;;;;;;4984504;28;8874;-78
2022/08/17 03:45:06;;;;;;;;;13.00;13.00;;;;;;;;4984266;28;8875;-77
2022/08/17 03:58:37;;;;;;;;;22.50;20.75;;;;;;;;4983293;28;8854;-78
2022/08/17 04:01:05;;;;;;;;;18.25;17.00;;;;;;;;4979734;28;8874;-77
2022/08/17 04:03:32;;;;;;;;;20.25;20.00;;;;;;;;4982295;28;8944;-78
2022/08/17 04:06:01;;;;;;;;;21.25;21.25;;;;;;;;4979702;28;8873;-77
2022/08/17 04:08:28;;;;;;;;;22.25;20.50;;;;;;;;4979772;28;8871;-78
2022/08/17 04:10:57;;;;;;;;;17.00;17.00;;;;;;;;4981982;28;8867;-78
2022/08/17 04:13:25;;;;;;;;;17.75;17.00;;;;;;;;4979785;28;8855;-77
2022/08/17 04:15:52;;;;;;;;;21.25;19.25;;;;;;;;4981354;28;8917;-77
2022/08/17 04:18:20;;;;;;;;;19.00;18.75;;;;;;;;4978094;28;9628;-76
2022/08/17 04:20:50;;;;;;;;;21.50;19.75;;;;;;;;4981980;28;8891;-77
2022/08/17 04:23:21;;;;;;;;;17.00;17.00;;;;;;;;4977846;28;8862;-79
2022/08/17 04:25:50;;;;;;;;;19.00;18.25;;;;;;;;4983082;28;8893;-77
2022/08/17 04:28:20;;;;;;;;;14.00;14.00;;;;;;;;4982827;28;9030;-78
2022/08/17 04:30:48;;;;;;;;;21.00;19.75;;;;;;;;4982727;28;8893;-77
2022/08/17 04:33:17;;;;;;;;;14.75;14.75;;;;;;;;4981550;28;8881;-77
2022/08/17 04:35:47;;;;;;;;;16.75;15.25;;;;;;;;4982691;28;8850;-77
2022/08/17 04:38:17;;;;;;;;;19.50;17.75;;;;;;;;4981239;28;8871;-77
2022/08/17 04:43:32;;;;;;;;;21.75;18.00;;;;;;;;4978753;28;8867;-78
2022/08/17 04:46:01;;;;;;;;;21.25;19.25;;;;;;;;4980429;28;8893;-78
2022/08/17 04:48:30;;;;;;;;;17.00;17.00;;;;;;;;4983074;28;8882;-78
2022/08/17 04:50:59;;;;;;;;;18.00;18.00;;;;;;;;4977086;28;8855;-78
2022/08/17 04:53:27;;;;;;;;;19.75;18.00;;;;;;;;4982471;28;9648;-78
2022/08/17 04:55:57;;;;;;;;;17.75;17.75;;;;;;;;4980986;28;9718;-78
2022/08/17 04:58:24;;;;;;;;;19.50;17.25;;;;;;;;4980718;28;8862;-78
2022/08/17 05:00:53;;;;;;;;;15.50;14.75;;;;;;;;4981101;28;8839;-77
2022/08/17 05:03:20;;;;;;;;;19.50;17.50;;;;;;;;4981644;28;8886;-79
2022/08/17 05:05:48;;;;;;;;;16.50;16.50;;;;;;;;4977068;28;8891;-79
2022/08/17 05:08:18;;;;;;;;;19.75;17.00;;;;;;;;4982274;28;8890;-78
2022/08/17 05:10:46;;;;;;;;;14.00;14.00;;;;;;;;4981318;28;8886;-77
2022/08/17 05:13:15;;;;;;;;;20.25;18.50;;;;;;;;4976795;28;9011;-78
2022/08/17 05:15:44;;;;;;;;;19.50;19.50;;;;;;;;4981668;28;8909;-77
2022/08/17 05:18:13;;;;;;;;;18.75;18.00;;;;;;;;4979827;28;8875;-78
2022/08/17 05:20:41;;;;;;;;;16.50;16.50;;;;;;;;4980826;28;8893;-77
2022/08/17 05:23:10;;;;;;;;;16.00;14.00;;;;;;;;4981342;28;8879;-78
2022/08/17 05:25:41;;;;;;;;;20.00;17.75;;;;;;;;4983615;28;9009;-77
2022/08/17 05:28:10;;;;;;;;;18.00;18.00;;;;;;;;4982199;28;8862;-77
2022/08/17 05:30:38;;;;;;;;;17.50;17.50;;;;;;;;4986862;28;8816;-79
2022/08/17 05:33:08;;;;;;;;;17.50;15.75;;;;;;;;4982334;28;8993;-78
2022/08/17 05:35:41;;;;;;;;;18.25;18.25;;;;;;;;4979181;28;8901;-78
2022/08/17 05:38:08;;;;;;;;;15.75;12.00;;;;;;;;4982191;28;8937;-76
2022/08/17 05:40:38;;;;;;;;;17.75;17.75;;;;;;;;4980344;28;8867;-78
2022/08/17 05:43:08;;;;;;;;;17.00;16.50;;;;;;;;4981465;28;8882;-77
2022/08/17 05:45:37;;;;;;;;;16.00;14.50;;;;;;;;4983153;28;8875;-77
2022/08/17 05:48:05;;;;;;;;;13.00;13.00;;;;;;;;4983795;28;8876;-77
2022/08/17 05:50:43;;;;;;;;;20.75;20.00;;;;;;;;4982276;28;8987;-78
2022/08/17 05:53:19;;;;;;;;;13.00;13.00;;;;;;;;4984194;28;8956;-78
2022/08/17 05:55:53;;;;;;;;;21.50;19.25;;;;;;;;4987108;28;8895;-79
2022/08/17 05:58:26;;;;;;;;;20.25;20.25;;;;;;;;4985299;28;9013;-78
2022/08/17 06:01:02;;;;;;;;;19.00;19.00;;;;;;;;4985475;28;8807;-79
2022/08/17 06:03:40;;;;;;;;;16.25;16.25;;;;;;;;4983110;28;8851;-79
2022/08/17 06:06:25;;;;;;;;;18.25;16.50;;;;;;;;4985331;28;8867;-78
2022/08/17 06:08:58;;;;;;;;;16.00;16.00;;;;;;;;4984196;28;8904;-79
2022/08/17 06:11:29;;;;;;;;;21.75;18.50;;;;;;;;4982619;28;8886;-79
2022/08/17 06:14:20;;;;;;;;;16.75;16.25;;;;;;;;4986206;28;8871;-80
2022/08/17 06:16:51;;;;;;;;;16.75;16.75;;;;;;;;4984912;28;8875;-78
2022/08/17 06:19:30;;;;;;;;;17.75;17.75;;;;;;;;4982536;28;9025;-78
2022/08/17 06:22:01;;;;;;;;;17.25;17.25;;;;;;;;4968387;28;8882;-79
2022/08/17 06:24:33;;;;;;;;;18.00;16.50;;;;;;;;4980768;28;8867;-79
2022/08/17 06:27:06;;;;;;;;;18.25;17.75;;;;;;;;4984667;28;8882;-78
2022/08/17 06:29:41;;;;;;;;;14.00;14.00;;;;;;;;4988362;28;8859;-82
2022/08/17 06:32:11;;;;;;;;;14.50;12.50;;;;;;;;4983020;28;8835;-82
2022/08/17 06:34:39;;;;;;;;;14.00;14.00;;;;;;;;4983728;28;8867;-82
2022/08/17 06:37:48;;;;;;;;;11.25;10.75;;;;;;;;4985939;28;8879;-82
2022/08/17 06:40:35;;;;;;;;;14.75;13.50;;;;;;;;4972025;28;9076;-81
2022/08/17 06:43:16;;;;;;;;;12.25;12.25;;;;;;;;4982295;28;9342;-80
2022/08/17 06:45:48;;;;;;;;;12.25;12.25;;;;;;;;4985126;28;8898;-86
2022/08/17 06:48:23;;;;;;;;;11.60;11.60;;;;;;;;4987733;28;9795;-80
2022/08/17 06:50:54;;;;;;;;;11.60;11.60;;;;;;;;4978599;28;9022;-81
2022/08/17 06:53:27;;;;;;;;;13.40;13.00;;;;;;;;4987537;28;8945;-81
2022/08/17 06:56:00;;;;;;;;;7.00;7.00;;;;;;;;4990791;28;9060;-83
2022/08/17 06:58:30;;;;;;;;;13.00;13.00;;;;;;;;4987560;28;8893;-82
2022/08/17 07:01:00;;;;;;;;;13.40;13.40;;;;;;;;4989987;28;8851;-79
2022/08/17 07:03:36;;;;;;;;;14.00;14.00;;;;;;;;4988215;28;8886;-80
2022/08/17 07:06:07;;;;;;;;;12.50;12.50;;;;;;;;4985798;28;8980;-78
2022/08/17 07:08:44;;;;;;;;;14.25;14.25;;;;;;;;4989029;28;8863;-79
2022/08/17 07:11:15;;;;;;;;;15.75;14.25;;;;;;;;4980520;28;8875;-83
2022/08/17 07:13:46;;;;;;;;;15.60;14.00;;;;;;;;4987333;28;8887;-80
2022/08/17 07:16:20;;;;;;;;;13.00;13.00;;;;;;;;4984219;28;8998;-88
2022/08/17 07:18:51;;;;;;;;;10.20;10.20;;;;;;;;4985479;28;8862;-82
2022/08/17 07:21:28;;;;;;;;;16.00;14.60;;;;;;;;4987221;28;8851;-80
2022/08/17 07:24:07;;;;;;;;;13.20;13.20;;;;;;;;4981452;28;9649;-78
2022/08/17 07:26:34;;;;;;;;;15.40;13.20;;;;;;;;4982966;28;8993;-88
2022/08/17 07:29:02;;;;;;;;;12.60;10.80;;;;;;;;4980018;28;8875;-81
2022/08/17 07:31:32;;;;;;;;;10.00;10.00;;;;;;;;4983551;28;8816;-80
2022/08/17 07:34:05;;;;;;;;;9.20;9.20;;;;;;;;4979977;28;8889;-79
2022/08/17 07:36:33;;;;;;;;;12.40;12.40;;;;;;;;4982960;28;8879;-81
2022/08/17 07:39:04;;;;;;;;;14.60;13.80;;;;;;;;4985577;28;9617;-81
2022/08/17 07:41:38;;;;;;;;;14.00;12.00;;;;;;;;4982498;28;8867;-82
2022/08/17 07:44:11;;;;;;;;;6.60;6.60;;;;;;;;4980054;28;9021;-82
2022/08/17 07:49:36;;;;;;;;;13.40;13.40;;;;;;;;4983833;28;8871;-90
2022/08/17 07:52:07;;;;;;;;;13.20;11.60;;;;;;;;4982119;28;8894;-79
2022/08/17 07:54:38;;;;;;;;;12.60;10.80;;;;;;;;4978335;28;8866;-79
2022/08/17 07:57:30;;;;;;;;;12.40;12.40;;;;;;;;4980258;28;8881;-81
2022/08/17 08:00:22;;;;;;;;;8.60;8.60;;;;;;;;4980138;28;8898;-81
2022/08/17 08:03:06;;;;;;;;;9.80;9.80;;;;;;;;4982419;28;9521;-85
2022/08/17 08:05:33;;;;;;;;;10.40;10.40;;;;;;;;4978596;28;8884;-79
2022/08/17 08:08:02;;;;;;;;;10.80;10.80;;;;;;;;4975379;28;9003;-79
2022/08/17 08:10:34;;;;;;;;;11.40;11.40;;;;;;;;4980618;28;9015;-83
2022/08/17 08:13:08;;;;;;;;;11.60;11.00;;;;;;;;4981259;28;8887;-80
2022/08/17 08:15:38;;;;;;;;;11.00;9.00;;;;;;;;4979214;28;8871;-81
2022/08/17 08:18:20;;;;;;;;;9.60;9.60;;;;;;;;4978876;28;9734;-80
2022/08/17 08:20:50;;;;;;;;;12.60;10.20;;;;;;;;4977634;28;8916;-82
2022/08/17 08:23:31;;;;;;;;;11.80;10.00;;;;;;;;4972439;28;8882;-84
2022/08/17 08:26:08;;;;;;;;;10.80;10.80;;;;;;;;4979879;28;8873;-79
2022/08/17 08:28:43;;;;;;;;;13.20;10.80;;;;;;;;4981199;28;8922;-88
2022/08/17 08:31:19;;;;;;;;;12.60;11.00;;;;;;;;4990318;28;8878;-93
2022/08/17 08:33:55;;;;;;;;;12.00;10.20;;;;;;;;5007110;28;8887;-82
2022/08/17 08:36:38;;;;;;;;;8.80;8.40;;;;;;;;5002281;28;8886;-80
2022/08/17 08:39:22;;;;;;;;;12.20;9.20;;;;;;;;4998866;28;8886;-90
2022/08/17 08:41:59;;;;;;;;;12.60;11.00;;;;;;;;5002544;28;8878;-79
2022/08/17 08:44:35;;;;;;;;;13.00;13.00;;;;;;;;4999657;28;8990;-77
2022/08/17 08:47:10;;;;;;;;;11.80;11.80;;;;;;;;4992281;28;8967;-77
2022/08/17 08:50:10;;;;;;;;;13.20;11.40;;;;;;;;4997116;28;8859;-80
2022/08/17 08:52:57;;;;;;;;;12.80;12.80;;;;;;;;4989792;28;10258;-76
2022/08/17 08:55:35;;;;;;;;;14.20;14.00;;;;;;;;4993243;28;8894;-76
2022/08/17 08:58:08;;;;;;;;;14.80;14.80;;;;;;;;4994556;28;8880;-74
2022/08/17 09:00:42;;;;;;;;;17.00;15.20;;;;;;;;4991720;28;8835;-74
2022/08/17 09:03:24;;;;;;;;;12.20;12.20;;;;;;;;4997828;28;8947;-75
2022/08/17 09:06:05;;;;;;;;;13.00;13.00;;;;;;;;4996692;28;9013;-74
2022/08/17 09:08:43;;;;;;;;;13.00;13.00;;;;;;;;5000726;28;8895;-74
2022/08/17 09:11:20;;;;;;;;;14.60;14.60;;;;;;;;4998802;28;8905;-74
2022/08/17 09:13:57;;;;;;;;;15.40;14.80;;;;;;;;4996362;28;8883;-74
2022/08/17 09:16:29;;;;;;;;;13.20;12.00;;;;;;;;4996227;28;8866;-74
2022/08/17 09:19:02;;;;;;;;;14.00;13.00;;;;;;;;4993562;28;8879;-74
2022/08/17 09:21:32;;;;;;;;;16.00;13.00;;;;;;;;4999270;28;8953;-74
2022/08/17 09:24:05;;;;;;;;;13.60;13.60;;;;;;;;4996755;28;8867;-75
2022/08/17 09:26:38;;;;;;;;;15.40;13.40;;;;;;;;4995417;28;8890;-75
2022/08/17 09:29:10;;;;;;;;;15.00;13.80;;;;;;;;4996090;28;8897;-75
2022/08/17 09:31:45;;;;;;;;;14.60;14.60;;;;;;;;4996806;28;8827;-75
2022/08/17 09:34:18;;;;;;;;;12.40;12.40;;;;;;;;4998083;28;9002;-73
2022/08/17 09:36:50;;;;;;;;;11.80;10.60;;;;;;;;4993888;28;9580;-74
2022/08/17 09:39:23;;;;;;;;;13.00;13.00;;;;;;;;4995782;28;8905;-74
2022/08/17 09:41:55;;;;;;;;;15.80;14.20;;;;;;;;4994493;28;8882;-73
2022/08/17 09:44:28;;;;;;;;;16.20;16.20;;;;;;;;4988882;28;8874;-75
2022/08/17 09:47:02;;;;;;;;;13.00;13.00;;;;;;;;4995779;28;8867;-74
2022/08/17 09:49:31;;;;;;;;;16.60;15.00;;;;;;;;5000370;28;8855;-75
2022/08/17 09:52:03;;;;;;;;;13.60;13.60;;;;;;;;4995845;28;8878;-76
2022/08/17 09:54:32;;;;;;;;;16.60;16.40;;;;;;;;5000515;28;9652;-74
2022/08/17 09:57:09;;;;;;;;;19.00;17.20;;;;;;;;4994445;28;8940;-74
2022/08/17 09:59:51;;;;;;;;;16.60;16.00;;;;;;;;4992395;28;8890;-76
2022/08/17 10:02:53;;;;;;;;;17.40;17.20;;;;;;;;4989777;28;8835;-75
2022/08/17 10:05:24;;;;;;;;;14.20;14.20;;;;;;;;4995435;28;9061;-76
2022/08/17 10:08:01;;;;;;;;;14.80;14.80;;;;;;;;4998694;28;8851;-73
2022/08/17 10:10:32;;;;;;;;;13.80;13.40;;;;;;;;5000043;28;8878;-75
2022/08/17 10:13:05;;;;;;;;;12.80;12.80;;;;;;;;5000724;28;9001;-79
2022/08/17 10:15:42;;;;;;;;;13.00;13.00;;;;;;;;4995220;28;8909;-76
2022/08/17 10:18:27;;;;;;;;;16.00;16.00;;;;;;;;4997690;28;8996;-76
2022/08/17 10:26:33;;;;;;;;;17.00;15.00;;;;;;;;4999747;28;9449;-77
2022/08/17 10:29:04;;;;;;;;;13.00;12.60;;;;;;;;5002958;28;9656;-79
2022/08/17 10:31:37;;;;;;;;;9.00;9.00;;;;;;;;5000607;28;8826;-76
2022/08/17 10:34:27;;;;;;;;;15.00;15.00;;;;;;;;4999974;28;8851;-75
2022/08/17 10:36:58;;;;;;;;;14.00;14.00;;;;;;;;4999896;28;8906;-75
2022/08/17 10:39:32;;;;;;;;;13.80;13.80;;;;;;;;5004542;28;8874;-74
2022/08/17 10:42:05;;;;;;;;;15.00;13.60;;;;;;;;4998874;28;8853;-75
2022/08/17 10:44:41;;;;;;;;;13.20;13.20;;;;;;;;4996899;28;8863;-75
2022/08/17 10:47:11;;;;;;;;;14.00;14.00;;;;;;;;5001726;28;8871;-74
2022/08/17 10:49:46;;;;;;;;;12.60;12.60;;;;;;;;4997551;28;8885;-76
2022/08/17 10:52:49;;;;;;;;;12.20;12.20;;;;;;;;5001884;28;8866;-75
2022/08/17 10:55:19;;;;;;;;;12.80;12.80;;;;;;;;5000677;28;8877;-75
2022/08/17 10:57:48;;;;;;;;;16.80;15.40;;;;;;;;5000187;28;8891;-75
2022/08/17 11:01:10;;;;;;;;;15.20;13.00;;;;;;;;4999487;28;8884;-74
2022/08/17 11:03:52;;;;;;;;;10.00;10.00;;;;;;;;4995658;28;8999;-74
2022/08/17 11:06:25;;;;;;;;;12.40;12.40;;;;;;;;4998500;28;8851;-77
2022/08/17 11:09:12;;;;;;;;;10.00;10.00;;;;;;;;5001328;28;8890;-75
2022/08/17 11:12:12;;;;;;;;;12.60;12.60;;;;;;;;5002225;28;9644;-77
2022/08/17 11:15:07;;;;;;;;;11.00;11.00;;;;;;;;4986363;28;8895;-76
2022/08/17 11:17:48;;;;;;;;;12.00;10.20;;;;;;;;5000866;28;8870;-75
2022/08/17 11:20:45;;;;;;;;;11.00;11.00;;;;;;;;4997890;28;8899;-76
2022/08/17 11:23:38;;;;;;;;;11.60;11.60;;;;;;;;4992790;28;8874;-78
2022/08/17 11:26:24;;;;;;;;;10.60;10.60;;;;;;;;4997495;28;8929;-75
2022/08/17 11:28:55;;;;;;;;;18.00;12.20;;;;;;;;4999974;28;9005;-74
2022/08/17 11:31:30;;;;;;;;;10.40;10.40;;;;;;;;5001939;28;8962;-75
2022/08/17 11:34:02;;;;;;;;;11.00;11.00;;;;;;;;5000572;28;9672;-75
2022/08/17 11:36:51;;;;;;;;;9.40;9.40;;;;;;;;4994898;28;8901;-74
2022/08/17 11:39:31;;;;;;;;;11.60;10.00;;;;;;;;4999188;28;8989;-77
2022/08/17 11:42:06;;;;;;;;;11.00;11.00;;;;;;;;5001962;28;8897;-76
2022/08/17 11:44:42;;;;;;;;;11.00;11.00;;;;;;;;5000820;28;8997;-79
2022/08/17 11:54:04;;;;;;;;;11.60;9.80;;;;;;;;4999965;28;8847;-81
2022/08/17 11:56:42;;;;;;;;;12.00;12.00;;;;;;;;4980785;28;8878;-86
2022/08/17 11:59:48;;;;;;;;;11.60;11.60;;;;;;;;5000870;28;8905;-86
2022/08/17 12:02:34;;;;;;;;;11.40;11.40;;;;;;;;5000147;28;8803;-84
2022/08/17 12:05:19;;;;;;;;;14.20;14.20;;;;;;;;4999027;28;10029;-80
2022/08/17 12:07:50;;;;;;;;;15.60;15.60;;;;;;;;4995278;28;8909;-79
2022/08/17 12:10:29;;;;;;;;;11.80;11.80;;;;;;;;4995845;28;8894;-82
2022/08/17 12:13:00;;;;;;;;;13.80;13.60;;;;;;;;4996092;28;8851;-82
2022/08/17 12:15:31;;;;;;;;;10.00;10.00;;;;;;;;5000412;28;8897;-78
2022/08/17 12:18:00;;;;;;;;;10.40;10.40;;;;;;;;4998895;28;8882;-82
2022/08/17 12:20:30;;;;;;;;;12.20;12.20;;;;;;;;4999648;28;8878;-78
2022/08/17 12:23:04;;;;;;;;;15.20;13.40;;;;;;;;4997931;28;8878;-78
2022/08/17 12:25:41;;;;;;;;;9.20;9.20;;;;;;;;4999468;28;8956;-78
2022/08/17 12:28:31;;;;;;;;;13.00;11.40;;;;;;;;4999611;28;8893;-78
2022/08/17 12:31:04;;;;;;;;;14.40;13.40;;;;;;;;5001730;28;8823;-77
2022/08/17 12:33:32;;;;;;;;;13.20;11.80;;;;;;;;5000369;28;8931;-77
2022/08/17 12:36:02;;;;;;;;;15.20;13.60;;;;;;;;5002128;28;8969;-77
2022/08/17 12:38:33;;;;;;;;;14.20;13.60;;;;;;;;5002431;28;9537;-76
2022/08/17 12:41:25;;;;;;;;;11.40;11.40;;;;;;;;4999444;28;8878;-77
2022/08/17 12:44:01;;;;;;;;;12.80;12.80;;;;;;;;5000465;28;8890;-76
2022/08/17 12:46:29;;;;;;;;;9.80;9.80;;;;;;;;4998556;28;8861;-75
2022/08/17 12:49:15;;;;;;;;;11.20;11.20;;;;;;;;5001371;28;8858;-76
2022/08/17 12:51:46;;;;;;;;;11.60;11.60;;;;;;;;5000871;28;8892;-76
2022/08/17 12:54:30;;;;;;;;;14.40;12.40;;;;;;;;5000306;28;8898;-76
2022/08/17 12:57:01;;;;;;;;;10.80;10.80;;;;;;;;5001144;28;8863;-76
2022/08/17 12:59:31;;;;;;;;;9.00;9.00;;;;;;;;4998026;28;8841;-77
2022/08/17 13:02:00;;;;;;;;;8.40;8.40;;;;;;;;5000177;28;8807;-76
2022/08/17 13:04:27;;;;;;;;;11.00;11.00;;;;;;;;5001317;28;8878;-77
2022/08/17 13:06:54;;;;;;;;;9.60;9.60;;;;;;;;4997721;28;8882;-76
2022/08/17 13:09:26;;;;;;;;;10.20;10.20;;;;;;;;5000142;28;8906;-77
2022/08/17 13:11:57;;;;;;;;;9.60;9.60;;;;;;;;4998517;28;8922;-76
2022/08/17 13:14:26;;;;;;;;;9.40;9.40;;;;;;;;4998116;28;8948;-77
2022/08/17 13:16:57;;;;;;;;;12.20;10.20;;;;;;;;4995943;28;8954;-77
2022/08/17 13:19:26;;;;;;;;;8.00;8.00;;;;;;;;5001211;28;8878;-77
2022/08/17 13:21:56;;;;;;;;;9.00;9.00;;;;;;;;4993059;28;8878;-77
2022/08/17 13:24:26;;;;;;;;;9.60;9.60;;;;;;;;4999360;28;8932;-77
2022/08/17 13:27:04;;;;;;;;;8.00;8.00;;;;;;;;5000474;28;8886;-77
2022/08/17 13:29:35;;;;;;;;;9.60;9.60;;;;;;;;4996194;28;8878;-77
2022/08/17 13:32:18;;;;;;;;;7.80;7.80;;;;;;;;4998241;28;8862;-78
2022/08/17 13:34:47;;;;;;;;;11.00;11.00;;;;;;;;4998949;28;9026;-77
2022/08/17 13:37:34;;;;;;;;;12.00;11.00;;;;;;;;4998028;28;8912;-77
2022/08/17 13:40:24;;;;;;;;;10.20;10.20;;;;;;;;4999549;28;8910;-78
2022/08/17 13:42:53;;;;;;;;;11.60;11.40;;;;;;;;4998511;28;8878;-77
2022/08/17 13:45:49;;;;;;;;;10.40;10.40;;;;;;;;4999865;28;8888;-78
2022/08/17 13:48:26;;;;;;;;;11.00;9.60;;;;;;;;5001761;28;8902;-77
2022/08/17 13:51:14;;;;;;;;;10.00;10.00;;;;;;;;4997111;28;8878;-77
2022/08/17 13:53:58;;;;;;;;;9.40;9.40;;;;;;;;4999277;28;8910;-77
2022/08/17 13:56:48;;;;;;;;;10.80;10.80;;;;;;;;5000701;28;9625;-76
2022/08/17 13:59:26;;;;;;;;;9.00;9.00;;;;;;;;4992411;28;8921;-77
2022/08/17 14:01:55;;;;;;;;;9.00;8.60;;;;;;;;5001523;28;8839;-77
2022/08/17 14:04:26;;;;;;;;;13.00;11.20;;;;;;;;4995221;28;9626;-77
2022/08/17 14:06:58;;;;;;;;;10.00;10.00;;;;;;;;4995361;28;8878;-74
2022/08/17 14:09:27;;;;;;;;;9.20;7.60;;;;;;;;4997176;28;8846;-77
2022/08/17 14:11:55;;;;;;;;;7.20;7.20;;;;;;;;5001035;28;8901;-76
2022/08/17 14:14:23;;;;;;;;;9.80;8.60;;;;;;;;5002052;28;8892;-76
2022/08/17 14:16:50;;;;;;;;;10.40;10.40;;;;;;;;5001884;28;8918;-75
2022/08/17 14:19:20;;;;;;;;;8.60;8.60;;;;;;;;5005153;28;8878;-75
2022/08/17 14:21:48;;;;;;;;;10.40;10.20;;;;;;;;4978246;28;8893;-75
2022/08/17 14:24:22;;;;;;;;;10.60;10.60;;;;;;;;5002961;28;9003;-75
2022/08/17 14:26:51;;;;;;;;;10.00;8.20;;;;;;;;5002865;28;9697;-76
2022/08/17 14:29:22;;;;;;;;;13.00;12.00;;;;;;;;5003878;28;8889;-75
2022/08/17 14:31:51;;;;;;;;;10.20;10.20;;;;;;;;5003647;28;8953;-76
2022/08/17 14:34:19;;;;;;;;;8.40;8.40;;;;;;;;5002212;28;8893;-76
2022/08/17 14:36:51;;;;;;;;;9.80;9.20;;;;;;;;4999588;28;8895;-77
2022/08/17 14:39:19;;;;;;;;;11.00;10.20;;;;;;;;5003807;28;8889;-76
2022/08/17 14:41:46;;;;;;;;;11.20;11.20;;;;;;;;5003880;28;8881;-76
2022/08/17 14:44:14;;;;;;;;;9.20;9.20;;;;;;;;5000305;28;8846;-77
2022/08/17 14:46:43;;;;;;;;;10.40;10.40;;;;;;;;5003097;28;8874;-76
2022/08/17 14:49:11;;;;;;;;;12.20;9.60;;;;;;;;5006207;28;8875;-76
2022/08/17 14:51:40;;;;;;;;;9.20;9.20;;;;;;;;5003751;28;8891;-75
2022/08/17 14:54:08;;;;;;;;;10.80;10.80;;;;;;;;5003903;28;8854;-76
2022/08/17 14:56:37;;;;;;;;;10.20;10.20;;;;;;;;5000100;28;8896;-76
2022/08/17 14:59:04;;;;;;;;;10.00;10.00;;;;;;;;5005120;28;8882;-76
2022/08/17 15:01:32;;;;;;;;;10.80;10.80;;;;;;;;5002065;28;8807;-76
2022/08/17 15:03:59;;;;;;;;;10.80;10.80;;;;;;;;5001945;28;8898;-76
2022/08/17 15:06:27;;;;;;;;;10.40;10.40;;;;;;;;5000263;28;9027;-76
2022/08/17 15:08:56;;;;;;;;;12.40;12.40;;;;;;;;5003755;28;8907;-76
2022/08/17 15:11:23;;;;;;;;;10.00;10.00;;;;;;;;5000159;28;9676;-75
2022/08/17 15:13:50;;;;;;;;;10.40;8.60;;;;;;;;4999399;28;8875;-75
2022/08/17 15:16:18;;;;;;;;;8.60;8.60;;;;;;;;5004175;28;8885;-78
2022/08/17 15:18:46;;;;;;;;;12.40;11.00;;;;;;;;5004960;28;8863;-80
2022/08/17 15:21:13;;;;;;;;;10.60;10.60;;;;;;;;5003469;28;8884;-78
2022/08/17 15:23:40;;;;;;;;;7.40;7.40;;;;;;;;5004383;28;8878;-77
2022/08/17 15:26:09;;;;;;;;;13.60;10.40;;;;;;;;5005801;28;8886;-75
2022/08/17 15:28:36;;;;;;;;;10.80;10.80;;;;;;;;5005338;28;8913;-76
2022/08/17 15:31:05;;;;;;;;;11.80;9.80;;;;;;;;5004805;28;8813;-76
2022/08/17 15:33:33;;;;;;;;;7.60;7.60;;;;;;;;5005041;28;8966;-76
2022/08/17 15:36:01;;;;;;;;;9.00;9.00;;;;;;;;5003394;28;8875;-74